DW3445 Weather Reports


time (UTC)temp
C
wind
direction
speed
KPH
gust
KPH
rain 1hr
cm
rain 24hr
cm
rain mn
cm
humidity
%
barometer
mb
20190419131642 16 42 35.4 54.7 0.03 0.03 0.03 80 1017.5
20190419130122 16 67 37.0 62.8 0.03 0.03 0.03 81 1017.4
20190419124641 16 61 35.4 57.9 0.00 0.00 0.00 81 1017.8
20190419123111 16 51 27.4 49.9 0.00 0.00 0.00 82 1018.1
20190419121607 16 44 27.4 49.9 0.00 0.00 0.00 81 1017.8
20190419120117 16 34 27.4 43.5 0.00 0.00 0.00 82 1018.1
20190419114704 16 58 29.0 53.1 0.00 0.00 0.00 82 1018.1
20190419113124 16 88 22.5 45.1 0.00 0.00 0.00 82 1018.6
20190419110039 16 71 25.7 43.5 0.00 0.00 0.00 83 1018.4
20190419104600 16 92 20.9 38.6 0.00 0.00 0.00 83 1018.6
20190419103131 16 67 22.5 41.8 0.00 0.00 0.00 83 1018.6
20190419101618 16 63 24.1 45.1 0.00 0.00 0.00 84 1018.5
20190419100112 16 55 22.5 38.6 0.00 0.00 0.00 85 1018.5
20190419094542 15 88 24.1 40.2 0.00 0.00 0.00 86 1018.6
20190419093057 15 44 20.9 41.8 0.00 0.00 0.00 87 1018.6
20190419091603 15 55 16.1 37.0 0.00 0.00 0.00 89 1018.6
20190419090121 15 57 22.5 37.0 0.00 0.00 0.00 90 1018.5
20190419084606 15 80 24.1 37.0 0.00 0.00 0.00 91 1018.5
20190419083128 15 39 20.9 38.6 0.00 0.00 0.00 90 1018.3
20190419081601 15 49 19.3 35.4 0.00 0.00 0.00 90 1018.3
20190419080047 15 65 22.5 37.0 0.00 0.00 0.00 90 1018.1
20190419074531 15 31 20.9 33.8 0.00 0.00 0.00 90 1018.1
20190419073036 15 51 19.3 32.2 0.00 0.00 0.00 89 1018.0
20190419071532 15 54 20.9 40.2 0.00 0.00 0.00 89 1017.9
20190419070117 15 50 20.9 40.2 0.00 0.00 0.00 89 1018.0
20190419064539 15 58 19.3 41.8 0.00 0.00 0.00 90 1017.9
20190419063046 15 54 19.3 40.2 0.00 0.00 0.00 91 1017.7
20190419061515 15 36 19.3 38.6 0.00 0.00 0.00 91 1017.4
20190419060016 15 87 20.9 37.0 0.00 0.00 0.00 92 1017.1
20190419054509 15 45 19.3 35.4 0.00 0.00 0.00 92 1017.2
20190419053010 15 49 19.3 33.8 0.00 0.00 0.00 92 1017.1
20190419051504 15 59 19.3 35.4 0.00 0.00 0.00 92 1017.2
20190419044656 15 47 9.7 30.6 0.00 0.00 0.00 92 1017.0
20190419043114 15 42 12.9 29.0 0.00 0.00 0.00 92 1017.1
20190419041742 15 48 12.9 24.1 0.00 0.00 0.00 92 1017.2
20190419040144 15 22 11.3 25.7 0.00 0.00 0.00 92 1017.1
20190419034701 15 47 14.5 27.4 0.00 0.00 0.00 92 1017.3
20190419033141 15 22 6.4 24.1 0.00 0.00 0.00 92 1017.4
20190419031701 15 44 11.3 22.5 0.00 0.00 0.00 92 1017.2
20190419030116 15 46 4.8 19.3 0.00 0.00 0.00 91 1017.4
20190419024701 15 55 19.3 35.4 0.00 0.00 0.00 91 1016.9
20190419023126 15 76 11.3 19.3 0.00 0.00 0.00 90 1017.3
20190419021624 15 57 12.9 27.4 0.00 0.00 0.00 90 1017.3
20190419020155 15 38 8.0 17.7 0.00 0.00 0.00 89 1017.4
20190419014657 15 38 12.9 22.5 0.00 0.00 0.00 88 1017.3
20190419013123 15 46 14.5 25.7 0.00 0.00 0.00 87 1017.4
20190419011622 15 67 9.7 17.7 0.00 0.00 0.00 86 1017.3
20190419010129 15 65 14.5 22.5 0.00 0.00 0.00 85 1017.3
20190419004602 16 74 16.1 24.1 0.00 0.00 0.00 84 1017.5
20190419003131 16 53 14.5 29.0 0.00 0.00 0.00 83 1017.4
20190419001624 16 61 19.3 27.4 0.00 0.00 0.00 82 1017.4
20190419000109 16 76 11.3 25.7 0.00 0.00 0.00 81 1017.7
20190418234620 16 66 16.1 30.6 0.00 0.00 0.00 81 1017.6
20190418233114 16 69 14.5 27.4 0.00 0.00 0.00 80 1017.7
20190418231607 16 74 20.9 33.8 0.00 0.00 0.00 79 1017.7
20190418230058 16 68 20.9 33.8 0.00 0.00 0.00 79 1017.5
20190418224552 16 42 27.4 45.1 0.00 0.00 0.00 79 1016.5
20190418223112 16 58 20.9 35.4 0.00 0.00 0.00 78 1016.8
20190418221611 16 67 17.7 30.6 0.00 0.00 0.00 78 1017.5
20190418220032 16 24 19.3 33.8 0.00 0.00 0.00 78 1017.7
20190418213051 16 70 16.1 29.0 0.00 0.00 0.00 78 1017.7
20190418210023 16 78 14.5 30.6 0.00 0.00 0.00 77 1017.5
20190418204557 16 52 16.1 27.4 0.00 0.00 0.00 77 1017.5
20190418203032 16 69 17.7 29.0 0.00 0.00 0.00 77 1017.4
20190418201526 16 68 16.1 32.2 0.00 0.00 0.00 76 1017.4
20190418200036 16 74 20.9 33.8 0.00 0.00 0.00 76 1017.3
20190418194543 16 71 19.3 29.0 0.00 0.00 0.00 76 1017.1
20190418193022 16 53 14.5 35.4 0.00 0.00 0.00 76 1016.7
20190418191559 16 51 20.9 43.5 0.00 0.00 0.00 76 1016.8
20190418190015 16 44 20.9 33.8 0.00 0.00 0.00 76 1016.3
20190418184532 16 75 24.1 45.1 0.00 0.00 0.00 75 1015.8
20190418183022 16 43 20.9 35.4 0.00 0.00 0.00 75 1015.4
20190418181512 16 75 22.5 48.3 0.00 0.00 0.00 75 1015.3
20190418180018 16 63 29.0 45.1 0.00 0.00 0.00 75 1014.8
20190418174528 16 52 24.1 37.0 0.00 0.00 0.00 75 1014.9
20190418173015 17 69 25.7 43.5 0.00 0.00 0.00 74 1015.8
20190418171509 17 78 22.5 38.6 0.00 0.00 0.00 74 1015.5
20190418170012 17 63 19.3 37.0 0.00 0.00 0.00 74 1016.1
20190418164509 17 107 22.5 35.4 0.00 0.00 0.00 73 1016.0
20190418163006 17 80 30.6 49.9 0.00 0.00 0.00 73 1015.2
20190418161518 18 100 24.1 48.3 0.00 0.00 0.00 72 1014.6
20190418160005 18 62 30.6 43.5 0.00 0.00 0.00 71 1014.5
20190418154511 18 107 22.5 43.5 0.00 0.00 0.00 70 1014.4
20190418153012 18 94 30.6 51.5 0.00 0.00 0.00 70 1013.8
20190418151502 18 74 25.7 41.8 0.00 0.00 0.00 70 1014.2
20190418150004 18 96 24.1 46.7 0.00 0.00 0.00 70 1014.4
20190418144726 18 74 27.4 46.7 0.00 0.00 0.00 69 1013.7
20190418143210 18 61 24.1 35.4 0.00 0.00 0.00 69 1014.5
20190418141646 18 76 32.2 54.7 0.00 0.00 0.00 69 1013.9
20190418140139 18 68 22.5 40.2 0.00 0.00 0.00 69 1015.1
20190418134704 19 95 32.2 46.7 0.00 0.00 0.00 68 1014.6
20190418133236 19 63 25.7 48.3 0.00 0.00 0.00 67 1014.9